createdAt,value
2018-05-14T00:02:21.980Z,3.90
2018-05-14T00:04:49.260Z,4.10
2018-05-14T00:07:16.599Z,4.20
2018-05-14T00:09:43.913Z,3.92
2018-05-14T00:12:11.212Z,4.12
2018-05-14T00:14:38.485Z,4.20
2018-05-14T00:17:05.799Z,4.10
2018-05-14T00:19:33.173Z,4.00
2018-05-14T00:22:00.452Z,4.30
2018-05-14T00:24:27.742Z,4.50
2018-05-14T00:26:55.063Z,3.90
2018-05-14T00:29:22.359Z,4.50
2018-05-14T00:31:49.691Z,4.20
2018-05-14T00:34:17.024Z,4.30
2018-05-14T00:36:44.400Z,4.30
2018-05-14T00:39:11.720Z,3.90
2018-05-14T00:41:39.022Z,4.15
2018-05-14T00:44:06.292Z,4.15
2018-05-14T00:46:33.746Z,4.57
2018-05-14T00:49:01.060Z,3.90
2018-05-14T00:51:28.326Z,5.07
2018-05-14T00:53:55.890Z,4.57
2018-05-14T00:56:23.251Z,4.80
2018-05-14T00:58:50.519Z,4.18
2018-05-14T01:01:17.843Z,4.32
2018-05-14T01:03:45.112Z,4.43
2018-05-14T01:06:12.472Z,4.20
2018-05-14T01:08:39.786Z,4.60
2018-05-14T01:11:07.171Z,4.20
2018-05-14T01:13:34.457Z,4.10
2018-05-14T01:16:01.814Z,4.10
2018-05-14T01:18:29.105Z,4.37
2018-05-14T01:20:56.453Z,4.70
2018-05-14T01:23:23.897Z,4.80
2018-05-14T01:25:51.249Z,4.50
2018-05-14T01:28:18.614Z,4.65
2018-05-14T01:30:45.945Z,5.18
2018-05-14T01:33:13.277Z,4.90
2018-05-14T01:35:40.637Z,4.75
2018-05-14T01:38:08.207Z,4.85
2018-05-14T01:40:35.761Z,4.63
2018-05-14T01:43:03.033Z,4.62
2018-05-14T01:45:30.584Z,5.30
2018-05-14T01:47:58.493Z,5.03
2018-05-14T01:50:25.794Z,4.40
2018-05-14T01:52:53.100Z,5.00
2018-05-14T01:55:20.417Z,4.97
2018-05-14T01:57:47.697Z,5.37
2018-05-14T02:00:15.049Z,4.80
2018-05-14T02:02:42.350Z,4.97
2018-05-14T02:05:09.804Z,5.10
2018-05-14T02:07:37.093Z,4.70
2018-05-14T02:10:04.413Z,4.80
2018-05-14T02:12:31.687Z,4.70
2018-05-14T02:14:59.022Z,5.00
2018-05-14T02:17:26.292Z,4.90
2018-05-14T02:19:53.590Z,4.87
2018-05-14T02:22:20.912Z,5.10
2018-05-14T02:24:48.230Z,5.32
2018-05-14T02:27:15.577Z,4.85
2018-05-14T02:29:42.881Z,5.15
2018-05-14T02:32:10.152Z,5.28
2018-05-14T02:34:37.459Z,5.15
2018-05-14T02:37:04.749Z,4.90
2018-05-14T02:39:32.035Z,4.80
2018-05-14T02:41:59.536Z,5.20
2018-05-14T02:44:27.102Z,5.15
2018-05-14T02:46:54.406Z,5.18
2018-05-14T02:49:21.673Z,5.50
2018-05-14T02:51:48.992Z,5.55
2018-05-14T02:54:16.299Z,5.50
2018-05-14T02:56:43.638Z,5.28
2018-05-14T02:59:10.967Z,5.50
2018-05-14T03:01:38.236Z,5.40
2018-05-14T03:04:05.732Z,5.20
2018-05-14T03:06:33.293Z,5.72
2018-05-14T03:09:00.578Z,5.40
2018-05-14T03:11:27.860Z,5.70
2018-05-14T03:13:55.160Z,5.10
2018-05-14T03:16:22.483Z,5.30
2018-05-14T03:18:49.752Z,5.25
2018-05-14T03:21:17.085Z,5.97
2018-05-14T03:23:44.394Z,5.53
2018-05-14T03:26:11.938Z,5.70
2018-05-14T03:28:39.266Z,5.80
2018-05-14T03:31:06.565Z,5.57
2018-05-14T03:33:34.184Z,5.90
2018-05-14T03:36:01.481Z,5.70
2018-05-14T03:38:28.785Z,5.62
2018-05-14T03:40:56.113Z,5.50
2018-05-14T03:43:23.433Z,5.80
2018-05-14T03:45:50.976Z,5.50
2018-05-14T03:48:18.290Z,5.30
2018-05-14T03:50:45.617Z,7.80
2018-05-14T03:53:12.986Z,7.10
2018-05-14T03:55:40.500Z,6.65
2018-05-14T03:58:13.777Z,6.40
2018-05-14T04:00:46.951Z,5.40
2018-05-14T04:03:20.135Z,5.87
2018-05-14T04:06:06.341Z,5.30
2018-05-14T04:08:33.670Z,5.60
2018-05-14T04:11:00.977Z,5.60
2018-05-14T04:13:28.298Z,6.20
2018-05-14T04:15:55.901Z,5.40
2018-05-14T04:18:23.176Z,5.62
2018-05-14T04:20:50.472Z,5.30
2018-05-14T04:23:17.852Z,5.40
2018-05-14T04:25:45.166Z,5.57
2018-05-14T04:28:12.449Z,5.50
2018-05-14T04:30:39.771Z,5.68
2018-05-14T04:33:07.632Z,5.20
2018-05-14T04:35:35.156Z,5.90
2018-05-14T04:38:02.713Z,5.80
2018-05-14T04:40:29.988Z,5.80
2018-05-14T04:42:57.267Z,5.95
2018-05-14T04:45:24.564Z,5.45
2018-05-14T04:47:51.837Z,5.85
2018-05-14T04:50:19.111Z,5.20
2018-05-14T04:52:46.439Z,5.60
2018-05-14T04:55:13.742Z,5.60
2018-05-14T04:57:41.051Z,5.43
2018-05-14T05:00:08.368Z,5.50
2018-05-14T05:02:35.649Z,5.55
2018-05-14T05:05:02.929Z,5.87
2018-05-14T05:07:30.465Z,5.20
2018-05-14T05:09:58.033Z,5.97
2018-05-14T05:12:25.584Z,5.20
2018-05-14T05:14:52.920Z,5.50
2018-05-14T05:17:20.237Z,4.97
2018-05-14T05:19:47.756Z,5.10
2018-05-14T05:22:15.093Z,5.12
2018-05-14T05:24:42.402Z,5.70
2018-05-14T05:27:09.705Z,5.60
2018-05-14T05:29:37.029Z,5.50
2018-05-14T05:32:04.532Z,5.20
2018-05-14T05:34:31.829Z,5.30
2018-05-14T05:36:59.104Z,5.13
2018-05-14T05:39:26.414Z,5.20
2018-05-14T05:41:53.725Z,5.00
2018-05-14T05:44:21.053Z,5.30
2018-05-14T05:46:48.361Z,5.20
2018-05-14T05:49:15.880Z,5.13
2018-05-14T05:51:43.241Z,4.80
2018-05-14T05:54:10.546Z,5.20
2018-05-14T05:56:37.832Z,4.62
2018-05-14T05:59:05.181Z,4.73
2018-05-14T06:01:32.688Z,5.18
2018-05-14T06:03:59.998Z,4.90
2018-05-14T06:06:27.297Z,5.10
2018-05-14T06:08:54.589Z,4.70
2018-05-14T06:11:21.875Z,4.90
2018-05-14T06:13:49.165Z,5.03
2018-05-14T06:16:16.469Z,4.70
2018-05-14T06:18:43.830Z,4.95
2018-05-14T06:21:11.164Z,5.40
2018-05-14T06:23:38.530Z,5.12
2018-05-14T06:26:05.917Z,4.80
2018-05-14T06:28:33.211Z,4.62
2018-05-14T06:31:00.549Z,4.80
2018-05-14T06:33:27.824Z,5.05
2018-05-14T06:35:55.128Z,4.32
2018-05-14T06:38:22.412Z,5.68
2018-05-14T06:40:49.757Z,5.60
2018-05-14T06:43:17.181Z,4.90
2018-05-14T06:45:44.515Z,5.00
2018-05-14T06:48:11.800Z,5.32
2018-05-14T06:50:39.100Z,5.22
2018-05-14T06:53:06.645Z,4.82
2018-05-14T06:55:34.239Z,4.50
2018-05-14T06:58:01.554Z,5.53
2018-05-14T07:00:28.833Z,4.80
2018-05-14T07:02:56.165Z,4.90
2018-05-14T07:05:23.499Z,7.05
2018-05-14T07:07:51.397Z,5.80
2018-05-14T07:10:18.690Z,6.68
2018-05-14T07:12:46.092Z,5.00
2018-05-14T07:15:13.323Z,4.83
2018-05-14T07:17:40.602Z,4.78
2018-05-14T07:20:07.938Z,5.18
2018-05-14T07:22:35.306Z,4.85
2018-05-14T07:25:02.695Z,5.15
2018-05-14T07:27:30.265Z,5.47
2018-05-14T07:29:57.443Z,4.80
2018-05-14T07:32:24.909Z,4.75
2018-05-14T07:34:52.221Z,4.50
2018-05-14T07:37:19.587Z,4.50
2018-05-14T07:39:46.886Z,4.60
2018-05-14T07:42:14.461Z,4.63
2018-05-14T07:44:41.788Z,5.00
2018-05-14T07:47:09.060Z,4.72
2018-05-14T07:49:36.739Z,4.50
2018-05-14T07:52:04.049Z,4.30
2018-05-14T07:54:31.408Z,4.40
2018-05-14T07:56:58.712Z,6.40
2018-05-14T07:59:26.095Z,5.72
2018-05-14T08:01:53.496Z,5.18
2018-05-14T08:04:20.756Z,4.93
2018-05-14T08:06:48.294Z,4.70
2018-05-14T08:09:15.436Z,4.90
2018-05-14T08:11:42.829Z,5.18
2018-05-14T08:14:10.094Z,5.10
2018-05-14T08:16:37.641Z,4.87
2018-05-14T08:19:04.970Z,5.00
2018-05-14T08:21:32.298Z,5.03
2018-05-14T08:23:59.593Z,7.20
2018-05-14T08:26:26.937Z,8.03
2018-05-14T08:28:54.235Z,5.53
2018-05-14T08:31:21.788Z,5.85
2018-05-14T08:33:49.122Z,7.20
2018-05-14T08:36:16.540Z,6.12
2018-05-14T08:38:43.845Z,5.70
2018-05-14T08:41:11.158Z,5.33
2018-05-14T08:43:38.489Z,4.80
2018-05-14T08:46:05.767Z,5.00
2018-05-14T08:48:33.105Z,5.18
2018-05-14T08:51:00.381Z,5.30
2018-05-14T08:53:27.804Z,22.92
2018-05-14T08:55:55.136Z,17.50
2018-05-14T08:58:22.449Z,11.20
2018-05-14T09:00:49.860Z,6.85
2018-05-14T09:03:17.062Z,5.05
2018-05-14T09:05:44.375Z,4.82
2018-05-14T09:08:11.672Z,4.20
2018-05-14T09:10:39.254Z,4.33
2018-05-14T09:13:06.817Z,4.50
2018-05-14T09:15:34.146Z,5.00
2018-05-14T09:18:01.501Z,4.32
2018-05-14T09:20:28.801Z,4.00
2018-05-14T09:22:56.069Z,4.20
2018-05-14T09:25:23.394Z,4.60
2018-05-14T09:27:50.689Z,3.80
2018-05-14T09:30:17.998Z,4.50
2018-05-14T09:32:45.285Z,4.37
2018-05-14T09:35:12.609Z,4.57
2018-05-14T09:37:39.910Z,4.72
2018-05-14T09:40:07.201Z,4.50
2018-05-14T09:42:34.572Z,4.95
2018-05-14T09:45:01.888Z,5.40
2018-05-14T09:47:29.176Z,4.20
2018-05-14T09:49:56.452Z,3.95
2018-05-14T09:52:23.766Z,4.50
2018-05-14T09:54:51.085Z,3.60
2018-05-14T09:57:18.558Z,3.67
2018-05-14T09:59:45.904Z,4.10
2018-05-14T10:02:13.173Z,3.80
2018-05-14T10:04:40.481Z,3.70
2018-05-14T10:07:07.756Z,3.70
2018-05-14T10:09:35.076Z,3.70
2018-05-14T10:12:02.376Z,3.90
2018-05-14T10:14:29.679Z,3.78
2018-05-14T10:16:57.042Z,3.90
2018-05-14T10:19:24.595Z,4.30
2018-05-14T10:21:51.922Z,3.50
2018-05-14T10:24:19.252Z,3.70
2018-05-14T10:26:46.856Z,3.67
2018-05-14T10:29:14.169Z,3.55
2018-05-14T10:31:41.464Z,3.80
2018-05-14T10:34:08.774Z,3.40
2018-05-14T10:36:36.051Z,3.80
2018-05-14T10:39:03.634Z,2.93
2018-05-14T10:41:30.954Z,3.72
2018-05-14T10:43:58.237Z,3.50
2018-05-14T10:46:25.548Z,4.10
2018-05-14T10:48:52.838Z,3.37
2018-05-14T10:51:20.146Z,3.70
2018-05-14T10:53:47.487Z,3.70
2018-05-14T10:56:14.766Z,3.70
2018-05-14T10:58:42.143Z,4.00
2018-05-14T11:01:09.730Z,3.62
2018-05-14T11:03:37.049Z,3.55
2018-05-14T11:06:04.367Z,3.80
2018-05-14T11:08:31.687Z,14.80
2018-05-14T11:10:58.972Z,5.03
2018-05-14T11:13:26.253Z,5.30
2018-05-14T11:15:53.575Z,4.20
2018-05-14T11:18:20.857Z,4.65
2018-05-14T11:20:48.461Z,4.32
2018-05-14T11:23:15.790Z,4.07
2018-05-14T11:25:43.095Z,4.00
2018-05-14T11:28:10.631Z,4.60
2018-05-14T11:30:37.936Z,5.10
2018-05-14T11:33:05.254Z,3.50
2018-05-14T11:35:32.799Z,3.70
2018-05-14T11:38:00.116Z,5.87
2018-05-14T11:40:27.403Z,6.78
2018-05-14T11:42:54.722Z,7.70
2018-05-14T11:45:22.185Z,4.50
2018-05-14T11:47:49.517Z,3.40
2018-05-14T11:50:16.791Z,3.30
2018-05-14T11:52:44.095Z,3.40
2018-05-14T11:55:11.405Z,3.70
2018-05-14T11:57:38.725Z,4.10
2018-05-14T12:00:06.036Z,3.53
2018-05-14T12:02:33.389Z,3.70
2018-05-14T12:05:00.697Z,3.60
2018-05-14T12:07:28.004Z,3.97
2018-05-14T12:09:55.315Z,3.70
2018-05-14T12:12:23.513Z,3.60
2018-05-14T12:14:50.847Z,4.10
2018-05-14T12:17:18.140Z,3.70
2018-05-14T12:19:45.454Z,3.85
2018-05-14T12:22:12.833Z,3.57
2018-05-14T12:24:40.100Z,3.37
2018-05-14T12:27:07.417Z,3.60
2018-05-14T12:29:34.769Z,3.73
2018-05-14T12:32:02.092Z,4.03
2018-05-14T12:34:29.375Z,3.60
2018-05-14T12:36:56.708Z,3.60
2018-05-14T12:39:24.029Z,3.40
2018-05-14T12:41:51.330Z,3.60
2018-05-14T12:44:18.953Z,3.60
2018-05-14T12:46:46.557Z,3.35
2018-05-14T12:49:13.869Z,3.60
2018-05-14T12:51:41.532Z,3.78
2018-05-14T12:54:08.866Z,3.85
2018-05-14T12:56:36.549Z,3.60
2018-05-14T12:59:04.104Z,4.20
2018-05-14T13:01:31.389Z,3.40
2018-05-14T13:03:58.665Z,3.00
2018-05-14T13:06:26.044Z,3.10
2018-05-14T13:08:53.350Z,2.80
2018-05-14T13:11:20.649Z,2.90
2018-05-14T13:13:47.973Z,3.00
2018-05-14T13:16:15.593Z,3.10
2018-05-14T13:18:42.877Z,2.97
2018-05-14T13:21:10.202Z,3.22
2018-05-14T13:23:37.514Z,3.60
2018-05-14T13:26:04.821Z,2.80
2018-05-14T13:28:32.469Z,2.90
2018-05-14T13:31:00.029Z,2.90
2018-05-14T13:33:27.312Z,2.90
2018-05-14T13:35:54.622Z,2.90
2018-05-14T13:38:21.931Z,2.80
2018-05-14T13:40:49.208Z,2.93
2018-05-14T13:43:16.545Z,2.60
2018-05-14T13:45:43.838Z,3.00
2018-05-14T13:48:11.113Z,2.78
2018-05-14T13:50:38.451Z,3.30
2018-05-14T13:53:05.918Z,3.30
2018-05-14T13:55:34.002Z,3.30
2018-05-14T13:58:01.552Z,2.83
2018-05-14T14:00:29.082Z,2.85
2018-05-14T14:02:56.390Z,3.43
2018-05-14T14:05:23.780Z,2.90
2018-05-14T14:07:51.162Z,3.40
2018-05-14T14:10:18.440Z,3.30
2018-05-14T14:12:45.773Z,3.00
2018-05-14T14:15:13.344Z,3.50
2018-05-14T14:17:40.628Z,3.30
2018-05-14T14:20:07.924Z,3.10
2018-05-14T14:22:35.238Z,2.90
2018-05-14T14:25:02.547Z,3.00
2018-05-14T14:27:29.849Z,3.10
2018-05-14T14:29:57.137Z,2.70
2018-05-14T14:32:24.429Z,3.00
2018-05-14T14:34:51.736Z,2.20
2018-05-14T14:37:19.051Z,2.10
2018-05-14T14:39:46.341Z,2.30
2018-05-14T14:42:13.641Z,2.22
2018-05-14T14:44:40.943Z,1.90
2018-05-14T14:47:08.225Z,2.40
2018-05-14T14:49:35.553Z,3.10
2018-05-14T14:52:02.854Z,2.00
2018-05-14T14:54:30.166Z,1.90
2018-05-14T14:56:57.486Z,2.33
2018-05-14T14:59:24.782Z,2.55
2018-05-14T15:01:52.057Z,2.30
2018-05-14T15:04:19.357Z,2.50
2018-05-14T15:06:46.679Z,2.37
2018-05-14T15:09:13.963Z,2.70
2018-05-14T15:11:41.253Z,2.60
2018-05-14T15:14:08.559Z,2.50
2018-05-14T15:16:35.873Z,2.10
2018-05-14T15:19:03.421Z,2.37
2018-05-14T15:21:30.700Z,2.33
2018-05-14T15:23:58.002Z,2.30
2018-05-14T15:26:25.321Z,2.20
2018-05-14T15:28:52.880Z,2.33
2018-05-14T15:31:20.178Z,2.22
2018-05-14T15:33:47.472Z,2.60
2018-05-14T15:36:14.765Z,2.40
2018-05-14T15:38:42.079Z,2.30
2018-05-14T15:41:09.652Z,2.40
2018-05-14T15:43:36.994Z,2.33
2018-05-14T15:46:04.309Z,2.50
2018-05-14T15:48:31.920Z,2.72
2018-05-14T15:50:59.278Z,2.20
2018-05-14T15:53:26.600Z,2.50
2018-05-14T15:55:53.894Z,2.30
2018-05-14T15:58:21.209Z,2.40
2018-05-14T16:00:48.511Z,2.40
2018-05-14T16:03:15.846Z,2.28
2018-05-14T16:05:43.249Z,2.85
2018-05-14T16:08:10.679Z,2.37
2018-05-14T16:10:38.058Z,2.50
2018-05-14T16:13:05.343Z,3.05
2018-05-14T16:15:32.628Z,3.10
2018-05-14T16:17:59.997Z,3.10
2018-05-14T16:20:27.312Z,3.20
2018-05-14T16:22:54.618Z,3.20
2018-05-14T16:25:21.996Z,3.53
2018-05-14T16:27:49.332Z,3.50
2018-05-14T16:30:16.753Z,3.60
2018-05-14T16:32:44.105Z,3.00
2018-05-14T16:35:11.397Z,3.30
2018-05-14T16:37:38.732Z,3.10
2018-05-14T16:40:06.061Z,3.60
2018-05-14T16:42:33.470Z,3.78
2018-05-14T16:45:00.778Z,3.10
2018-05-14T16:47:28.123Z,3.62
2018-05-14T16:49:55.414Z,3.50
2018-05-14T16:52:22.705Z,3.70
2018-05-14T16:54:50.012Z,5.80
2018-05-14T16:57:17.340Z,4.07
2018-05-14T16:59:44.621Z,3.60
2018-05-14T17:02:11.963Z,3.80
2018-05-14T17:04:39.228Z,3.30
2018-05-14T17:07:06.579Z,3.70
2018-05-14T17:09:34.708Z,3.65
2018-05-14T17:12:02.308Z,3.50
2018-05-14T17:14:29.687Z,3.90
2018-05-14T17:16:57.082Z,4.00
2018-05-14T17:19:24.545Z,3.80
2018-05-14T17:21:51.897Z,4.10
2018-05-14T17:24:19.192Z,3.60
2018-05-14T17:26:46.498Z,3.90
2018-05-14T17:29:13.930Z,3.90
2018-05-14T17:31:41.255Z,3.83
2018-05-14T17:34:08.550Z,4.18
2018-05-14T17:36:35.824Z,4.32
2018-05-14T17:39:03.162Z,4.32
2018-05-14T17:41:30.461Z,4.60
2018-05-14T17:43:57.732Z,4.37
2018-05-14T17:46:25.096Z,4.12
2018-05-14T17:48:52.458Z,4.80
2018-05-14T17:51:19.784Z,5.20
2018-05-14T17:53:47.229Z,4.43
2018-05-14T17:56:14.557Z,4.55
2018-05-14T17:58:41.841Z,3.62
2018-05-14T18:01:09.148Z,4.30
2018-05-14T18:03:36.474Z,4.80
2018-05-14T18:06:03.782Z,4.10
2018-05-14T18:08:31.224Z,4.50
2018-05-14T18:10:58.513Z,5.12
2018-05-14T18:13:25.797Z,4.47
2018-05-14T18:15:53.342Z,4.30
2018-05-14T18:18:20.649Z,4.68
2018-05-14T18:20:48.067Z,4.47
2018-05-14T18:23:21.173Z,4.40
2018-05-14T18:25:54.099Z,4.70
2018-05-14T18:28:21.538Z,5.10
2018-05-14T18:30:48.845Z,4.50
2018-05-14T18:33:20.980Z,5.45
2018-05-14T18:35:50.882Z,4.62
2018-05-14T18:38:18.209Z,4.62
2018-05-14T18:40:45.657Z,4.70
2018-05-14T18:43:12.979Z,4.80
2018-05-14T18:45:40.383Z,4.97
2018-05-14T18:48:07.708Z,4.90
2018-05-14T18:50:35.367Z,4.67
2018-05-14T18:53:02.640Z,4.82
2018-05-14T18:55:30.226Z,4.12
2018-05-14T18:57:57.733Z,5.45
2018-05-14T19:00:25.302Z,6.83
2018-05-14T19:02:52.613Z,5.43
2018-05-14T19:05:19.890Z,6.50
2018-05-14T19:07:47.197Z,5.25
2018-05-14T19:10:20.349Z,4.68
2018-05-14T19:12:47.882Z,5.85
2018-05-14T19:15:21.137Z,5.10
2018-05-14T19:17:54.602Z,5.07
2018-05-14T19:20:22.266Z,4.90
2018-05-14T19:22:55.325Z,5.10
2018-05-14T19:25:22.881Z,5.12
2018-05-14T19:27:56.117Z,4.62
2018-05-14T19:30:23.770Z,5.82
2018-05-14T19:32:51.324Z,5.40
2018-05-14T19:35:24.396Z,5.12
2018-05-14T19:37:51.722Z,4.87
2018-05-14T19:40:24.974Z,4.90
2018-05-14T19:42:52.285Z,4.68
2018-05-14T19:45:19.626Z,5.43
2018-05-14T19:47:47.147Z,4.85
2018-05-14T19:50:14.582Z,5.27
2018-05-14T19:52:41.890Z,5.10
2018-05-14T19:55:09.230Z,4.50
2018-05-14T19:57:36.771Z,5.00
2018-05-14T20:00:04.140Z,4.50
2018-05-14T20:02:31.437Z,4.90
2018-05-14T20:04:58.777Z,4.25
2018-05-14T20:07:26.094Z,4.60
2018-05-14T20:09:53.437Z,4.62
2018-05-14T20:12:20.795Z,3.97
2018-05-14T20:14:48.155Z,4.15
2018-05-14T20:17:15.539Z,4.28
2018-05-14T20:19:42.938Z,4.78
2018-05-14T20:22:10.279Z,4.67
2018-05-14T20:24:37.780Z,4.68
2018-05-14T20:27:05.199Z,4.85
2018-05-14T20:29:32.565Z,4.70
2018-05-14T20:31:59.931Z,4.60
2018-05-14T20:34:27.315Z,4.25
2018-05-14T20:36:54.754Z,4.70
2018-05-14T20:39:22.103Z,4.30
2018-05-14T20:41:49.434Z,4.83
2018-05-14T20:44:16.738Z,4.60
2018-05-14T20:46:44.119Z,4.50
2018-05-14T20:49:11.743Z,4.90
2018-05-14T20:51:39.047Z,4.43
2018-05-14T20:54:06.365Z,4.32
2018-05-14T20:56:33.674Z,4.62
2018-05-14T20:59:01.106Z,5.07
2018-05-14T21:01:28.419Z,4.50
2018-05-14T21:03:55.751Z,5.00
2018-05-14T21:06:23.115Z,4.60
2018-05-14T21:08:50.451Z,4.75
2018-05-14T21:11:17.806Z,4.95
2018-05-14T21:13:45.399Z,5.20
2018-05-14T21:16:12.715Z,5.20
2018-05-14T21:18:40.058Z,4.62
2018-05-14T21:21:07.435Z,4.97
2018-05-14T21:23:34.786Z,4.70
2018-05-14T21:26:02.135Z,4.97
2018-05-14T21:28:29.443Z,4.85
2018-05-14T21:30:56.757Z,4.47
2018-05-14T21:33:24.072Z,4.43
2018-05-14T21:35:51.403Z,4.55
2018-05-14T21:38:18.711Z,4.82
2018-05-14T21:40:46.040Z,4.70
2018-05-14T21:43:13.388Z,5.37
2018-05-14T21:45:40.745Z,5.60
2018-05-14T21:48:08.362Z,4.68
2018-05-14T21:50:35.926Z,4.90
2018-05-14T21:53:03.288Z,5.00
2018-05-14T21:55:30.638Z,4.82
2018-05-14T21:57:58.201Z,4.82
2018-05-14T22:00:25.551Z,4.70
2018-05-14T22:02:52.934Z,4.95
2018-05-14T22:05:20.565Z,4.57
2018-05-14T22:07:47.937Z,4.57
2018-05-14T22:10:15.252Z,4.97
2018-05-14T22:12:42.631Z,4.60
2018-05-14T22:15:09.985Z,4.97
2018-05-14T22:17:37.343Z,5.03
2018-05-14T22:20:04.679Z,5.00
2018-05-14T22:22:32.047Z,5.10
2018-05-14T22:24:59.378Z,4.80
2018-05-14T22:27:26.972Z,5.07
2018-05-14T22:29:54.630Z,4.95
2018-05-14T22:32:21.944Z,4.57
2018-05-14T22:34:49.249Z,5.00
2018-05-14T22:37:17.019Z,4.60
2018-05-14T22:39:44.347Z,4.70
2018-05-14T22:42:11.689Z,4.85
2018-05-14T22:44:39.050Z,5.30
2018-05-14T22:47:06.634Z,4.70
2018-05-14T22:49:34.301Z,4.90
2018-05-14T22:52:01.679Z,4.68
2018-05-14T22:54:35.255Z,4.90
2018-05-14T22:57:02.597Z,5.20
2018-05-14T22:59:30.165Z,5.20
2018-05-14T23:01:57.534Z,4.82
2018-05-14T23:04:24.896Z,4.78
2018-05-14T23:06:52.210Z,4.67
2018-05-14T23:09:19.548Z,5.40
2018-05-14T23:11:47.146Z,5.10
2018-05-14T23:14:14.499Z,5.40
2018-05-14T23:16:41.852Z,4.85
2018-05-14T23:19:09.202Z,4.80
2018-05-14T23:21:36.595Z,4.80
2018-05-14T23:24:03.930Z,4.87
2018-05-14T23:26:31.289Z,5.00
2018-05-14T23:28:58.846Z,4.80
2018-05-14T23:31:26.410Z,4.90
2018-05-14T23:33:53.761Z,4.82
2018-05-14T23:36:21.111Z,5.50
2018-05-14T23:38:48.422Z,4.60
2018-05-14T23:41:16.131Z,5.50
2018-05-14T23:43:43.458Z,5.20
2018-05-14T23:46:11.041Z,5.03
2018-05-14T23:48:38.407Z,5.03
2018-05-14T23:51:05.966Z,5.40
2018-05-14T23:53:33.277Z,4.82
2018-05-14T23:56:00.609Z,4.95
2018-05-14T23:58:27.914Z,4.90
